Time;durP1;ratioP1;P1;durP2;ratioP2;P2;SDS_P1;SDS_P2;PMS_P1;PMS_P2;Temp;Humidity;BMP_temperature;BMP_pressure;BME280_temperature;BME280_humidity;BME280_pressure;Samples;Min_cycle;Max_cycle;Signal;HPM_P1;HPM_P2
2022/06/14 00:02:25;;;;;;;5.38;3.30;;;10.40;99.90;;;;;;4987105;28;20042;-64
2022/06/14 00:04:51;;;;;;;11.75;3.97;;;10.30;99.90;;;;;;4982907;28;20038;-63
2022/06/14 00:07:17;;;;;;;6.47;3.78;;;10.30;99.90;;;;;;4993070;28;20050;-64
2022/06/14 00:09:43;;;;;;;8.48;4.72;;;10.20;99.90;;;;;;4975837;28;20042;-64
2022/06/14 00:12:09;;;;;;;9.38;5.40;;;10.10;99.90;;;;;;4989241;28;20047;-64
2022/06/14 00:14:34;;;;;;;7.95;4.15;;;10.10;99.90;;;;;;4992810;28;20042;-64
2022/06/14 00:17:00;;;;;;;8.80;4.60;;;10.00;99.90;;;;;;4992846;28;20038;-63
2022/06/14 00:19:26;;;;;;;8.25;4.60;;;9.90;99.90;;;;;;4964385;28;20039;-63
2022/06/14 00:21:51;;;;;;;6.43;4.00;;;9.90;99.90;;;;;;4984806;28;20063;-64
2022/06/14 00:24:17;;;;;;;7.35;4.03;;;9.90;99.90;;;;;;4993150;28;20121;-64
2022/06/14 00:26:42;;;;;;;10.05;4.28;;;9.90;99.90;;;;;;4993519;28;20379;-63
2022/06/14 00:29:08;;;;;;;8.02;4.50;;;9.90;99.90;;;;;;4980976;28;20038;-63
2022/06/14 00:31:34;;;;;;;6.95;4.00;;;9.90;99.90;;;;;;4988362;28;20062;-64
2022/06/14 00:34:00;;;;;;;6.22;3.40;;;9.90;99.90;;;;;;4992822;28;20463;-63
2022/06/14 00:36:29;;;;;;;5.97;3.80;;;9.90;99.90;;;;;;4982333;28;20086;-63
2022/06/14 00:39:04;;;;;;;6.88;4.43;;;9.90;99.90;;;;;;5006098;23;20053;-67
2022/06/14 00:41:40;;;;;;;10.40;5.00;;;9.80;99.90;;;;;;4970691;28;20066;-67
2022/06/14 00:44:12;;;;;;;8.68;4.60;;;9.80;99.90;;;;;;4975614;28;20038;-67
2022/06/14 00:46:54;;;;;;;6.57;4.97;;;9.70;99.90;;;;;;4982817;28;20133;-67
2022/06/14 00:49:45;;;;;;;12.57;5.45;;;9.70;99.90;;;;;;4992063;28;20046;-67
2022/06/14 00:52:34;;;;;;;8.60;4.72;;;9.70;99.90;;;;;;4958134;28;20046;-67
2022/06/14 00:55:07;;;;;;;6.03;3.17;;;9.60;99.90;;;;;;4981509;28;20042;-67
2022/06/14 00:57:49;;;;;;;9.50;3.72;;;9.50;99.90;;;;;;4983045;28;20034;-67
2022/06/14 01:00:18;;;;;;;5.97;3.30;;;9.50;99.90;;;;;;4989573;28;20042;-67
2022/06/14 01:02:50;;;;;;;12.52;4.22;;;9.40;99.90;;;;;;4971890;28;20509;-67
2022/06/14 01:05:25;;;;;;;;;;;9.30;99.90;;;;;;4983396;28;20046;-67
2022/06/14 01:07:55;;;;;;;10.07;5.03;;;9.30;99.90;;;;;;4991181;28;19932;-67
2022/06/14 01:10:26;;;;;;;13.20;5.10;;;9.30;99.90;;;;;;4958943;28;20061;-67
2022/06/14 01:12:55;;;;;;;6.82;4.25;;;9.30;99.90;;;;;;4975718;28;20422;-67
2022/06/14 01:15:29;;;;;;;7.38;4.25;;;9.30;99.90;;;;;;4988319;28;20038;-67
2022/06/14 01:18:11;;;;;;;6.43;4.10;;;9.30;99.90;;;;;;4991201;28;20042;-67
2022/06/14 01:20:37;;;;;;;8.57;4.82;;;9.30;99.90;;;;;;4979755;28;20082;-67
2022/06/14 01:23:05;;;;;;;8.68;5.15;;;9.20;99.90;;;;;;4982561;28;20073;-67
2022/06/14 01:25:35;;;;;;;8.43;4.65;;;9.20;99.90;;;;;;4987045;28;20517;-67
2022/06/14 01:28:03;;;;;;;6.70;4.28;;;9.10;99.90;;;;;;4975264;28;20038;-67
2022/06/14 01:30:32;;;;;;;9.23;5.47;;;9.10;99.90;;;;;;4983120;28;20336;-67
2022/06/14 01:33:00;;;;;;;12.30;5.28;;;9.10;99.90;;;;;;4989540;28;20057;-67
2022/06/14 01:35:32;;;;;;;5.90;4.00;;;9.10;99.90;;;;;;4966550;28;20054;-67
2022/06/14 01:38:00;;;;;;;6.43;3.70;;;9.00;99.90;;;;;;4966564;28;20035;-67
2022/06/14 01:41:05;;;;;;;9.18;4.75;;;8.90;99.90;;;;;;4990707;28;20487;-67
2022/06/14 01:43:43;;;;;;;14.38;4.57;;;8.90;99.90;;;;;;4952132;28;20078;-67
2022/06/14 01:53:03;;;;;;;11.68;5.25;;;8.70;99.90;;;;;;4996344;28;20046;-67
2022/06/14 01:55:41;;;;;;;11.80;5.50;;;8.70;99.90;;;;;;4983930;28;20042;-67
2022/06/14 01:58:34;;;;;;;13.80;5.65;;;8.60;99.90;;;;;;4978296;28;20065;-67
2022/06/14 02:01:15;;;;;;;11.15;5.70;;;8.70;99.90;;;;;;4972205;28;20093;-67
2022/06/14 02:07:01;;;;;;;10.73;5.50;;;8.80;99.90;;;;;;4978597;28;20510;-67
2022/06/14 02:09:54;;;;;;;14.02;5.75;;;8.70;99.90;;;;;;4965516;28;20038;-67
2022/06/14 02:12:30;;;;;;;12.23;5.93;;;8.70;99.90;;;;;;4995550;28;20038;-67
2022/06/14 02:15:02;;;;;;;13.95;6.22;;;8.70;99.90;;;;;;4974110;28;20038;-67
2022/06/14 02:17:35;;;;;;;12.52;6.38;;;8.70;99.90;;;;;;4966660;28;20047;-67
2022/06/14 02:20:05;;;;;;;14.52;6.50;;;8.70;99.90;;;;;;4977577;28;20122;-67
2022/06/14 02:22:46;;;;;;;10.23;6.13;;;8.70;99.90;;;;;;4995802;28;20117;-67
2022/06/14 02:25:16;;;;;;;14.60;6.32;;;8.70;99.90;;;;;;4973760;28;20434;-67
2022/06/14 02:27:50;;;;;;;12.75;6.15;;;8.70;99.90;;;;;;4994836;28;20090;-67
2022/06/14 02:30:28;;;;;;;11.05;5.40;;;8.70;99.90;;;;;;4999173;28;20066;-67
2022/06/14 02:33:01;;;;;;;9.50;5.05;;;8.70;99.90;;;;;;4950157;28;20395;-67
2022/06/14 02:35:36;;;;;;;11.07;6.72;;;8.70;99.90;;;;;;4992398;28;20046;-67
2022/06/14 02:38:15;;;;;;;16.17;6.72;;;8.70;99.90;;;;;;4977479;28;20073;-67
2022/06/14 02:40:43;;;;;;;14.98;6.97;;;8.70;99.90;;;;;;4995331;28;20038;-67
2022/06/14 02:43:13;;;;;;;10.70;6.78;;;8.70;99.90;;;;;;4966680;28;20068;-67
2022/06/14 02:45:45;;;;;;;9.57;4.93;;;8.80;99.90;;;;;;4969288;28;20057;-67
2022/06/14 02:48:13;;;;;;;;;;;8.70;99.90;;;;;;4977832;28;20505;-67
2022/06/14 02:50:44;;;;;;;16.75;6.80;;;8.70;99.90;;;;;;4956813;28;19929;-67
2022/06/14 02:53:17;;;;;;;14.48;7.40;;;8.70;99.90;;;;;;4972801;28;20054;-67
2022/06/14 02:56:13;;;;;;;12.93;6.50;;;8.70;99.90;;;;;;4994800;28;20096;-67
2022/06/14 02:59:09;;;;;;;13.32;7.00;;;8.70;99.90;;;;;;5053835;23;20052;-67
2022/06/14 03:01:57;;;;;;;11.55;6.07;;;8.70;99.90;;;;;;4956495;28;20533;-67
2022/06/14 03:04:38;;;;;;;10.82;6.60;;;8.70;99.90;;;;;;4971120;28;20043;-67
2022/06/14 03:07:13;;;;;;;9.23;5.90;;;8.70;99.90;;;;;;4946515;28;20039;-67
2022/06/14 03:09:43;;;;;;;11.52;6.65;;;8.80;99.90;;;;;;4945634;28;20279;-67
2022/06/14 03:23:18;;;;;;;16.00;7.43;;;8.80;99.90;;;;;;5072440;23;20065;-67
2022/06/14 03:26:02;;;;;;;14.63;7.03;;;8.80;99.90;;;;;;4956764;28;20051;-67
2022/06/14 03:28:32;;;;;;;14.60;6.80;;;8.80;99.90;;;;;;4969524;28;20042;-67
2022/06/14 03:54:47;;;;;;;15.18;7.18;;;8.90;99.90;;;;;;5630914;23;20477;-66
2022/06/14 03:57:28;;;;;;;11.18;6.47;;;9.00;99.90;;;;;;4996126;28;20042;-66
2022/06/14 04:00:07;;;;;;;14.02;7.93;;;9.10;99.90;;;;;;4965256;28;20112;-66
2022/06/14 04:03:03;;;;;;;16.83;8.00;;;9.10;99.90;;;;;;5084419;23;20124;-66
2022/06/14 04:05:36;;;;;;;16.95;7.82;;;9.20;99.90;;;;;;4993654;28;20100;-66
2022/06/14 04:16:25;;;;;;;12.32;7.45;;;9.30;99.90;;;;;;5494491;23;20073;-68
2022/06/14 04:19:03;;;;;;;14.75;7.35;;;9.40;99.90;;;;;;4980128;28;20737;-68
2022/06/14 04:24:04;;;;;;;13.23;7.80;;;9.40;99.90;;;;;;5478632;23;20058;-66
2022/06/14 04:31:47;;;;;;;18.92;9.20;;;9.50;99.90;;;;;;5436879;23;20050;-66
2022/06/14 04:34:31;;;;;;;18.10;8.55;;;9.50;99.90;;;;;;4984012;28;20125;-66
2022/06/14 04:44:46;;;;;;;15.85;9.40;;;9.70;99.90;;;;;;5114183;23;20056;-69
2022/06/14 04:47:17;;;;;;;18.77;10.35;;;9.80;99.90;;;;;;4997633;28;20045;-69
2022/06/14 04:53:16;;;;;;;14.90;9.20;;;9.90;99.90;;;;;;5163186;23;19922;-66
2022/06/14 04:56:01;;;;;;;21.58;9.77;;;9.90;99.90;;;;;;4981952;28;20090;-66
2022/06/14 04:58:27;;;;;;;19.33;10.25;;;10.00;99.90;;;;;;5008380;23;20053;-66
2022/06/14 05:00:57;;;;;;;18.48;10.43;;;10.10;99.90;;;;;;5002271;28;20418;-66
2022/06/14 05:03:36;;;;;;;22.98;11.40;;;10.10;99.90;;;;;;4991779;28;20100;-66
2022/06/14 05:06:14;;;;;;;19.00;11.70;;;10.10;99.90;;;;;;5003393;28;20099;-66
2022/06/14 05:08:51;;;;;;;22.70;11.05;;;10.20;99.90;;;;;;5010512;28;20046;-66
2022/06/14 05:11:42;;;;;;;18.58;11.90;;;10.30;99.90;;;;;;5006049;28;20053;-67
2022/06/14 05:14:11;;;;;;;18.88;11.93;;;10.40;99.90;;;;;;5001119;28;20053;-67
2022/06/14 05:16:53;;;;;;;20.58;11.77;;;10.50;99.90;;;;;;5002365;28;20482;-67
2022/06/14 05:19:32;;;;;;;20.38;11.32;;;10.50;99.90;;;;;;4989474;28;20133;-67
2022/06/14 05:22:17;;;;;;;22.00;11.80;;;10.60;99.90;;;;;;4990330;28;20050;-68
2022/06/14 05:24:42;;;;;;;23.17;11.77;;;10.70;99.90;;;;;;5002223;28;20038;-67
2022/06/14 05:27:17;;;;;;;18.83;10.85;;;10.80;99.90;;;;;;4993751;28;20045;-67
2022/06/14 05:32:39;;;;;;;17.67;10.80;;;11.00;99.90;;;;;;6000399;23;20040;-67
2022/06/14 05:40:44;;;;;;;18.55;8.48;;;11.40;99.90;;;;;;5245990;23;20096;-66
2022/06/14 05:43:34;;;;;;;18.80;10.05;;;11.40;99.90;;;;;;4972156;28;20045;-66
2022/06/14 05:46:12;;;;;;;18.05;9.60;;;11.60;99.90;;;;;;4954955;28;20049;-66
2022/06/14 05:48:51;;;;;;;18.67;10.00;;;11.70;99.90;;;;;;4955148;28;20047;-67
2022/06/14 05:51:21;;;;;;;20.25;8.80;;;11.80;99.90;;;;;;4945563;28;20042;-67
2022/06/14 05:53:53;;;;;;;15.05;8.15;;;11.80;99.90;;;;;;4939282;28;20043;-66
2022/06/14 05:56:31;;;;;;;14.85;8.55;;;11.90;99.90;;;;;;4965839;28;20472;-67
2022/06/14 06:17:17;;;;;;;14.95;7.43;;;12.60;99.90;;;;;;5904641;23;20056;-66
2022/06/14 06:20:01;;;;;;;19.08;7.38;;;12.70;99.90;;;;;;4965720;28;20034;-67
2022/06/14 06:22:45;;;;;;;15.15;7.38;;;12.80;99.90;;;;;;5001753;28;20041;-67
2022/06/14 06:25:17;;;;;;;14.25;7.57;;;12.80;99.90;;;;;;5007999;28;20417;-67
2022/06/14 06:28:02;;;;;;;12.02;6.47;;;12.90;99.90;;;;;;4986753;28;20644;-67
2022/06/14 06:38:26;;;;;;;12.05;5.97;;;13.30;99.90;;;;;;5136208;23;20055;-68
2022/06/14 06:43:53;;;;;;;14.80;5.82;;;13.50;99.90;;;;;;4981218;28;20519;-68
2022/06/14 06:46:20;;;;;;;18.52;6.18;;;13.50;99.90;;;;;;4974266;28;20509;-68
2022/06/14 06:48:55;;;;;;;17.05;6.40;;;13.60;99.90;;;;;;4958261;28;20046;-68
2022/06/14 06:51:30;;;;;;;16.00;6.15;;;13.70;99.90;;;;;;4964220;28;20046;-68
2022/06/14 06:54:32;;;;;;;15.57;6.32;;;13.70;99.90;;;;;;4985005;28;20640;-68
2022/06/14 06:57:00;;;;;;;12.85;4.43;;;13.80;99.90;;;;;;4985569;28;20042;-68
2022/06/14 06:59:40;;;;;;;13.15;5.13;;;13.90;99.90;;;;;;4970020;28;20046;-68
2022/06/14 07:02:20;;;;;;;8.18;4.68;;;14.00;99.90;;;;;;4968994;28;20359;-68
2022/06/14 07:28:35;;;;;;;11.60;4.28;;;14.70;99.90;;;;;;5317137;23;20056;-66
2022/06/14 07:33:37;;;;;;;10.10;4.15;;;14.80;99.90;;;;;;5028602;23;20055;-66
2022/06/14 07:49:24;;;;;;;12.48;4.28;;;15.70;99.90;;;;;;5160343;23;20515;-68
2022/06/14 07:52:29;;;;;;;9.98;4.40;;;15.70;99.90;;;;;;4985289;28;20046;-68
2022/06/14 08:15:44;;;;;;;8.38;3.45;;;16.70;99.90;;;;;;5110093;23;20097;-66
2022/06/14 08:18:16;;;;;;;9.20;2.67;;;16.80;99.90;;;;;;4950697;28;20051;-66
2022/06/14 08:20:56;;;;;;;8.70;3.05;;;16.80;99.90;;;;;;4963384;28;20039;-65
2022/06/14 08:23:25;;;;;;;7.72;3.03;;;16.80;99.90;;;;;;4961630;28;20126;-66
2022/06/14 08:25:58;;;;;;;6.63;2.70;;;16.80;99.90;;;;;;4952232;28;20039;-66
2022/06/14 08:31:38;;;;;;;12.27;3.60;;;16.50;99.90;;;;;;5695683;23;20050;-68
2022/06/14 08:34:33;;;;;;;8.65;3.40;;;16.50;99.90;;;;;;4992553;28;20046;-68
2022/06/14 08:37:25;;;;;;;7.72;3.40;;;16.60;99.90;;;;;;5003191;28;20064;-68
2022/06/14 08:39:57;;;;;;;7.57;3.60;;;16.80;99.90;;;;;;4988876;28;20051;-67
2022/06/14 08:42:37;;;;;;;8.02;3.47;;;17.10;99.90;;;;;;4992626;28;20100;-67
2022/06/14 08:48:40;;;;;;;7.72;3.58;;;17.40;99.90;;;;;;4989345;28;20049;-66
2022/06/14 08:51:12;;;;;;;8.77;3.60;;;17.60;99.90;;;;;;4968252;28;20043;-66
2022/06/14 08:53:49;;;;;;;8.32;3.60;;;17.50;99.90;;;;;;4954032;28;20047;-66
2022/06/14 08:56:38;;;;;;;8.98;3.53;;;17.50;99.90;;;;;;4966138;28;20042;-66
2022/06/14 08:59:17;;;;;;;6.28;2.42;;;17.50;99.90;;;;;;4978771;28;20038;-66
2022/06/14 09:01:58;;;;;;;6.07;2.50;;;17.40;99.90;;;;;;4990623;28;20046;-66
2022/06/14 09:05:07;;;;;;;6.70;2.58;;;17.30;99.90;;;;;;4964731;28;20042;-66
2022/06/14 09:08:10;;;;;;;7.40;2.70;;;17.30;99.90;;;;;;4982532;28;20050;-66
2022/06/14 09:14:26;;;;;;;7.63;3.03;;;17.50;99.90;;;;;;5367663;22;20082;-66
2022/06/14 09:17:33;;;;;;;8.02;3.08;;;17.90;99.90;;;;;;4961760;28;20148;-66
2022/06/14 09:36:10;;;;;;;8.57;2.70;;;18.50;99.90;;;;;;4989997;28;20046;-61
2022/06/14 09:39:02;;;;;;;7.00;2.22;;;18.30;99.90;;;;;;4987960;28;20832;-62
2022/06/14 09:41:36;;;;;;;6.28;2.25;;;18.10;98.40;;;;;;4981584;28;20058;-62
2022/06/14 09:44:11;;;;;;;6.80;2.42;;;18.30;99.90;;;;;;4991639;28;20070;-61
2022/06/14 09:46:46;;;;;;;8.30;2.70;;;18.40;99.90;;;;;;4969818;28;20051;-61
2022/06/14 09:49:15;;;;;;;7.07;2.72;;;18.70;99.90;;;;;;4963412;28;20046;-62
2022/06/14 09:51:59;;;;;;;8.20;2.40;;;18.90;99.90;;;;;;4991226;28;20042;-62
2022/06/14 09:54:52;;;;;;;5.75;2.40;;;19.00;99.90;;;;;;4991862;28;20065;-62
2022/06/14 09:57:44;;;;;;;5.53;2.35;;;18.90;99.30;;;;;;4959445;28;20038;-62
2022/06/14 10:00:36;;;;;;;4.55;2.28;;;18.90;99.90;;;;;;4967345;28;20039;-61
2022/06/14 10:03:25;;;;;;;5.50;2.30;;;18.80;99.80;;;;;;4967796;28;20042;-61
2022/06/14 10:06:19;;;;;;;6.88;2.30;;;18.50;99.30;;;;;;4964924;28;20042;-62
2022/06/14 10:09:13;;;;;;;6.75;2.28;;;18.20;97.00;;;;;;4972621;28;20043;-62
2022/06/14 10:12:03;;;;;;;7.90;2.33;;;18.20;97.50;;;;;;4960528;28;20055;-62
2022/06/14 10:14:55;;;;;;;4.37;2.13;;;18.20;99.10;;;;;;4974517;28;20053;-62
2022/06/14 10:17:41;;;;;;;5.57;2.50;;;18.40;97.10;;;;;;4995333;28;20038;-62
2022/06/14 10:20:39;;;;;;;7.78;2.50;;;18.70;99.70;;;;;;4953898;28;20043;-62
2022/06/14 10:23:42;;;;;;;5.85;2.60;;;18.90;99.40;;;;;;4970578;28;20117;-62
2022/06/14 10:29:30;;;;;;;8.63;2.53;;;19.20;99.90;;;;;;4958789;28;20083;-62
2022/06/14 10:32:29;;;;;;;5.97;2.40;;;19.30;97.00;;;;;;4912057;29;20136;-62
2022/06/14 10:35:04;;;;;;;5.93;2.50;;;19.70;99.10;;;;;;4955360;28;20427;-62
2022/06/14 10:38:06;;;;;;;4.30;2.00;;;19.90;99.60;;;;;;4971912;28;20043;-62
2022/06/14 10:40:38;;;;;;;5.72;2.40;;;20.00;94.30;;;;;;4967040;28;20050;-62
2022/06/14 10:43:21;;;;;;;6.40;2.10;;;20.10;98.70;;;;;;4975433;28;20633;-62
2022/06/14 10:46:01;;;;;;;5.53;2.30;;;20.10;96.20;;;;;;4967953;28;20051;-62
2022/06/14 10:49:06;;;;;;;6.28;2.35;;;20.20;96.90;;;;;;4957588;28;20058;-63
2022/06/14 10:51:53;;;;;;;5.55;2.55;;;20.10;92.80;;;;;;4975095;28;20092;-62
2022/06/14 10:54:54;;;;;;;4.20;2.30;;;20.20;96.40;;;;;;4966978;28;20446;-63
2022/06/14 10:57:23;;;;;;;6.82;2.42;;;20.50;97.80;;;;;;4971960;28;20134;-63
2022/06/14 11:00:13;;;;;;;6.93;2.90;;;20.90;95.10;;;;;;4971598;28;20078;-63
2022/06/14 11:03:00;;;;;;;6.75;2.40;;;21.00;95.70;;;;;;4968455;28;20050;-63
2022/06/14 11:05:41;;;;;;;4.75;2.40;;;20.80;93.00;;;;;;4974855;28;20049;-63
2022/06/14 11:08:37;;;;;;;4.83;2.17;;;20.70;95.70;;;;;;4975599;28;20041;-63
2022/06/14 11:11:21;;;;;;;3.67;1.90;;;20.30;94.50;;;;;;4967812;28;20039;-63
2022/06/14 11:14:02;;;;;;;4.97;1.98;;;20.20;95.10;;;;;;4960280;28;20388;-63
2022/06/14 11:16:52;;;;;;;4.90;2.17;;;20.10;95.90;;;;;;4965839;28;20038;-63
2022/06/14 11:19:31;;;;;;;5.80;2.20;;;20.00;95.70;;;;;;4975152;28;20039;-63
2022/06/14 11:21:59;;;;;;;5.57;2.17;;;20.00;97.50;;;;;;4974913;28;20054;-63
2022/06/14 11:24:55;;;;;;;4.30;2.17;;;19.90;97.60;;;;;;4956249;28;20038;-63
2022/06/14 11:27:37;;;;;;;5.53;2.10;;;19.80;97.30;;;;;;4924496;28;20058;-62
2022/06/14 11:30:30;;;;;;;6.70;2.20;;;19.70;98.50;;;;;;4954545;28;20494;-63
2022/06/14 11:33:22;;;;;;;6.22;2.40;;;19.80;95.20;;;;;;4968425;28;20057;-62
2022/06/14 11:36:13;;;;;;;5.95;2.47;;;19.90;96.80;;;;;;4966896;28;20496;-63
2022/06/14 11:38:51;;;;;;;;;;;19.80;98.10;;;;;;4973577;28;20100;-63
2022/06/14 11:41:20;;;;;;;6.43;2.47;;;19.70;95.40;;;;;;4970932;28;19925;-63
2022/06/14 11:44:08;;;;;;;5.75;2.42;;;19.60;98.90;;;;;;4962445;28;20089;-63
2022/06/14 11:46:55;;;;;;;7.18;2.60;;;19.90;98.40;;;;;;4972828;28;20042;-63
2022/06/14 11:49:40;;;;;;;5.95;2.17;;;20.40;96.80;;;;;;4974384;28;20509;-63
2022/06/14 11:52:18;;;;;;;5.20;2.58;;;20.70;95.10;;;;;;4963641;28;20047;-63
2022/06/14 11:54:55;;;;;;;4.60;2.20;;;21.10;96.40;;;;;;4973750;28;20077;-63
2022/06/14 11:57:43;;;;;;;5.38;2.25;;;21.40;94.90;;;;;;4974253;28;20043;-63
2022/06/14 12:00:18;;;;;;;4.72;2.00;;;21.80;95.30;;;;;;4964527;28;20422;-62
2022/06/14 12:03:23;;;;;;;4.22;2.10;;;22.10;94.20;;;;;;4967429;28;20034;-62
2022/06/14 12:06:05;;;;;;;9.00;2.50;;;22.50;93.20;;;;;;4939680;28;20051;-62
2022/06/14 12:08:46;;;;;;;5.65;2.50;;;22.90;95.40;;;;;;4972650;28;20046;-62
2022/06/14 12:11:18;;;;;;;4.72;2.30;;;22.90;93.30;;;;;;4972933;28;20465;-63
2022/06/14 12:13:46;;;;;;;5.40;2.25;;;23.00;94.80;;;;;;4958637;28;20047;-63
2022/06/14 12:16:16;;;;;;;5.28;2.25;;;22.70;91.90;;;;;;4961177;28;20070;-63
2022/06/14 12:19:05;;;;;;;4.35;2.10;;;22.50;86.40;;;;;;4965905;28;20090;-62
2022/06/14 12:21:54;;;;;;;4.03;2.20;;;22.20;91.50;;;;;;4955486;28;20415;-63
2022/06/14 12:26:34;;;;;;;5.25;2.25;;;21.90;88.50;;;;;;4965957;28;20051;-64
2022/06/14 12:27:08;;;;;;;4.47;2.00;;;21.80;94.50;;;;;;4950790;28;21449;-64
2022/06/14 12:29:41;;;;;;;3.30;2.00;;;21.80;94.20;;;;;;4960257;28;20038;-64
2022/06/14 12:32:26;;;;;;;5.72;2.30;;;21.70;91.90;;;;;;4953959;28;20036;-63
2022/06/14 12:35:13;;;;;;;4.63;2.05;;;21.60;93.60;;;;;;4961862;28;20146;-64
2022/06/14 12:37:50;;;;;;;6.25;2.20;;;21.40;93.70;;;;;;4970275;28;20047;-62
2022/06/14 12:40:53;;;;;;;4.57;2.17;;;21.20;92.90;;;;;;4972284;28;20046;-63
2022/06/14 12:43:22;;;;;;;6.05;2.70;;;21.50;93.30;;;;;;4962471;28;20041;-62
2022/06/14 12:46:09;;;;;;;4.90;2.30;;;22.10;95.60;;;;;;4965905;28;20093;-62
2022/06/14 12:49:06;;;;;;;5.10;2.33;;;22.60;92.40;;;;;;4969369;28;20078;-62
2022/06/14 12:51:52;;;;;;;5.93;2.00;;;22.90;91.70;;;;;;4956191;28;20196;-63
2022/06/14 12:54:29;;;;;;;3.95;1.88;;;23.20;91.30;;;;;;4972123;28;20502;-62
2022/06/14 12:57:48;;;;;;;3.63;2.00;;;23.50;91.80;;;;;;4969525;28;20043;-62
2022/06/14 13:00:29;;;;;;;7.75;2.10;;;23.50;82.00;;;;;;4926702;28;20047;-63
2022/06/14 13:02:55;;;;;;;;;;;23.30;84.00;;;;;;4966079;28;20043;-63
2022/06/14 13:05:25;;;;;;;3.97;2.00;;;23.20;83.60;;;;;;4968724;28;19949;-62
2022/06/14 13:08:06;;;;;;;3.50;1.85;;;23.30;86.50;;;;;;4969013;28;20108;-62
2022/06/14 13:10:37;;;;;;;4.30;1.80;;;23.60;81.70;;;;;;4981029;28;20050;-62
2022/06/14 13:13:29;;;;;;;5.78;1.85;;;23.70;89.90;;;;;;4973688;28;20685;-63
2022/06/14 13:16:22;;;;;;;7.13;2.10;;;23.80;76.60;;;;;;4982672;28;20432;-63
2022/06/14 13:19:14;;;;;;;5.13;1.98;;;24.00;82.30;;;;;;4951351;29;20411;-63
2022/06/14 13:21:58;;;;;;;5.22;1.92;;;24.00;75.00;;;;;;4914634;28;20061;-63
2022/06/14 13:24:38;;;;;;;3.75;2.17;;;23.90;86.90;;;;;;4961932;28;20455;-62
2022/06/14 13:27:36;;;;;;;5.28;2.10;;;24.20;91.30;;;;;;4962905;28;20507;-63
2022/06/14 13:30:04;;;;;;;5.43;2.15;;;23.60;79.00;;;;;;4974183;28;20050;-63
2022/06/14 13:32:36;;;;;;;3.42;1.75;;;23.70;83.50;;;;;;4971521;28;20042;-62
2022/06/14 13:35:40;;;;;;;5.15;2.47;;;23.90;77.20;;;;;;4964302;28;20043;-63
2022/06/14 13:38:30;;;;;;;5.60;2.20;;;24.10;87.40;;;;;;4962636;28;20129;-63
2022/06/14 13:41:12;;;;;;;6.32;2.10;;;23.30;84.50;;;;;;4956742;28;20035;-63
2022/06/14 13:43:52;;;;;;;4.97;2.33;;;22.70;79.60;;;;;;4986334;28;20038;-63
2022/06/14 13:46:18;;;;;;;7.75;2.65;;;22.30;85.10;;;;;;4971992;28;20043;-62
2022/06/14 13:49:15;;;;;;;5.00;2.25;;;22.70;91.30;;;;;;4964818;28;20125;-63
2022/06/14 13:52:05;;;;;;;4.15;2.45;;;22.50;82.40;;;;;;4954674;28;20061;-63
2022/06/14 13:54:40;;;;;;;6.32;2.10;;;22.70;92.90;;;;;;4991302;28;20056;-63
2022/06/14 13:57:32;;;;;;;4.72;1.90;;;23.40;90.30;;;;;;4970540;28;20414;-63
2022/06/14 14:00:25;;;;;;;5.07;2.22;;;23.80;81.90;;;;;;4964917;28;20082;-63
2022/06/14 14:03:16;;;;;;;4.15;1.90;;;24.00;75.00;;;;;;4970332;28;20255;-63
2022/06/14 14:05:51;;;;;;;5.10;1.98;;;24.60;74.70;;;;;;4956640;28;20045;-63
2022/06/14 14:08:44;;;;;;;4.07;1.70;;;24.90;74.90;;;;;;4987010;28;20046;-62
2022/06/14 14:11:15;;;;;;;3.67;1.70;;;24.90;68.30;;;;;;4954144;28;20496;-62
2022/06/14 14:13:53;;;;;;;4.43;2.10;;;24.50;78.30;;;;;;4970247;28;20075;-63
2022/06/14 14:16:27;;;;;;;6.10;2.13;;;24.60;81.50;;;;;;4975781;28;20375;-63
2022/06/14 14:19:07;;;;;;;4.05;2.05;;;25.30;77.10;;;;;;4962176;28;20045;-62
2022/06/14 14:21:35;;;;;;;5.63;2.10;;;25.70;76.10;;;;;;4979635;28;20077;-63
2022/06/14 14:24:23;;;;;;;14.63;1.80;;;25.90;78.50;;;;;;4989611;28;20052;-63
2022/06/14 14:27:03;;;;;;;4.28;1.70;;;25.30;62.20;;;;;;4965051;28;20039;-62
2022/06/14 14:29:40;;;;;;;3.53;1.83;;;24.30;65.10;;;;;;4961079;28;20093;-62
2022/06/14 14:32:31;;;;;;;5.72;1.85;;;24.00;77.50;;;;;;4965967;28;20041;-63
2022/06/14 14:35:08;;;;;;;4.80;1.60;;;23.60;73.30;;;;;;4961827;28;20475;-63
2022/06/14 14:37:45;;;;;;;4.22;1.73;;;23.40;76.50;;;;;;4962542;28;20122;-64
2022/06/14 14:40:20;;;;;;;4.90;1.70;;;23.00;79.50;;;;;;4970153;28;20043;-63
2022/06/14 14:43:13;;;;;;;5.05;1.88;;;22.80;84.50;;;;;;4952179;29;20081;-64
2022/06/14 14:45:49;;;;;;;3.65;1.80;;;22.70;82.50;;;;;;4951554;28;20424;-64
2022/06/14 14:48:23;;;;;;;2.63;2.00;;;22.70;90.30;;;;;;4968639;28;20112;-63
2022/06/14 14:51:02;;;;;;;5.05;1.80;;;22.70;88.50;;;;;;4963360;28;20132;-63
2022/06/14 14:53:55;;;;;;;3.85;2.08;;;22.70;90.00;;;;;;4967983;28;20114;-64
2022/06/14 14:56:46;;;;;;;5.43;1.80;;;22.70;85.80;;;;;;4947583;28;20041;-63
2022/06/14 14:59:24;;;;;;;4.53;1.92;;;22.80;86.40;;;;;;4972734;28;20039;-63
2022/06/14 15:05:22;;;;;;;4.78;2.00;;;23.20;85.90;;;;;;4969643;28;20043;-64
2022/06/14 15:08:05;;;;;;;8.55;2.00;;;23.50;88.50;;;;;;4967754;28;20073;-64
2022/06/14 15:10:55;;;;;;;5.38;2.20;;;23.90;78.70;;;;;;4969474;28;20439;-64
2022/06/14 15:13:42;;;;;;;4.63;1.80;;;24.00;75.90;;;;;;4964936;28;20042;-64
2022/06/14 15:16:28;;;;;;;3.97;1.80;;;24.30;78.60;;;;;;4971113;28;20077;-64
2022/06/14 15:21:51;;;;;;;3.25;1.80;;;25.00;76.80;;;;;;4962530;28;20042;-64
2022/06/14 15:24:35;;;;;;;7.32;2.05;;;24.60;74.00;;;;;;4970927;28;20153;-63
2022/06/14 15:27:12;;;;;;;7.18;2.72;;;24.60;75.80;;;;;;4971705;28;20053;-63
2022/06/14 15:29:46;;;;;;;5.60;1.90;;;25.10;71.80;;;;;;4959452;28;20082;-63
2022/06/14 15:32:15;;;;;;;3.58;1.77;;;25.40;70.80;;;;;;4967297;28;20046;-63
2022/06/14 15:34:49;;;;;;;4.05;1.90;;;25.70;67.20;;;;;;4971518;28;20384;-64
2022/06/14 15:37:38;;;;;;;3.78;1.90;;;25.70;64.50;;;;;;4960528;28;20522;-63
2022/06/14 15:40:13;;;;;;;3.58;1.80;;;25.60;61.70;;;;;;4956406;28;20482;-63
2022/06/14 15:42:57;;;;;;;3.35;1.85;;;25.40;65.40;;;;;;4969450;28;20495;-62
2022/06/14 15:45:30;;;;;;;5.53;2.00;;;25.30;66.50;;;;;;4970951;28;20089;-63
2022/06/14 15:48:01;;;;;;;5.47;2.08;;;25.20;68.30;;;;;;4963725;28;20050;-63
2022/06/14 15:50:32;;;;;;;;;;;25.90;63.20;;;;;;4967832;28;20518;-63
2022/06/14 15:53:01;;;;;;;5.22;1.83;;;25.80;56.50;;;;;;4962295;28;19957;-63
2022/06/14 15:55:30;;;;;;;3.78;1.85;;;25.70;65.30;;;;;;4970291;28;20495;-63
2022/06/14 15:58:29;;;;;;;5.82;1.80;;;25.60;62.00;;;;;;4973548;28;20035;-64
2022/06/14 16:01:17;;;;;;;4.63;2.00;;;25.20;65.30;;;;;;4957208;28;20078;-64
2022/06/14 16:03:50;;;;;;;2.80;1.67;;;24.60;62.40;;;;;;4962308;28;20059;-64
2022/06/14 16:06:33;;;;;;;5.03;1.92;;;24.80;67.40;;;;;;4970241;28;20518;-64
2022/06/14 16:09:04;;;;;;;5.45;1.80;;;25.80;64.20;;;;;;4953487;28;20050;-64
2022/06/14 16:11:43;;;;;;;5.78;2.10;;;26.60;62.70;;;;;;4963827;28;20047;-64
2022/06/14 16:14:10;;;;;;;4.28;1.80;;;27.60;57.40;;;;;;4972807;28;20450;-64
2022/06/14 16:16:42;;;;;;;3.67;1.77;;;28.00;59.20;;;;;;4973836;28;20035;-64
2022/06/14 16:19:37;;;;;;;5.97;1.90;;;28.70;57.40;;;;;;4958437;28;20043;-64
2022/06/14 16:22:14;;;;;;;2.92;1.50;;;28.60;52.10;;;;;;4965721;28;20054;-64
2022/06/14 16:24:43;;;;;;;4.03;1.70;;;27.90;53.00;;;;;;4972819;28;20074;-64
2022/06/14 16:27:39;;;;;;;3.83;1.50;;;27.40;54.10;;;;;;4957132;28;20043;-64
2022/06/14 16:30:14;;;;;;;3.28;1.77;;;26.90;51.90;;;;;;4967107;28;20074;-64
2022/06/14 16:32:48;;;;;;;14.15;2.20;;;26.20;55.60;;;;;;4964303;28;20537;-64
2022/06/14 16:35:28;;;;;;;12.73;2.00;;;27.00;57.30;;;;;;4968701;28;20070;-64
2022/06/14 16:38:13;;;;;;;3.40;1.50;;;27.50;55.50;;;;;;4965894;28;20061;-64
2022/06/14 16:41:16;;;;;;;4.53;1.98;;;27.50;53.90;;;;;;4970696;28;20035;-64
2022/06/14 16:44:10;;;;;;;3.65;1.50;;;27.30;52.80;;;;;;4968237;28;20047;-64
2022/06/14 16:46:42;;;;;;;2.85;1.45;;;26.30;53.60;;;;;;4971122;28;20046;-64
2022/06/14 16:49:40;;;;;;;3.58;1.70;;;26.10;57.60;;;;;;4972366;28;20046;-64
2022/06/14 16:52:14;;;;;;;4.07;1.70;;;26.30;55.20;;;;;;4966692;28;20121;-64
2022/06/14 16:55:02;;;;;;;4.15;1.60;;;26.00;56.00;;;;;;4971596;28;20089;-64
2022/06/14 16:57:46;;;;;;;4.18;1.50;;;26.30;55.80;;;;;;4963407;28;20039;-64
2022/06/14 17:00:14;;;;;;;4.60;1.63;;;26.50;55.80;;;;;;4958332;28;20608;-64
2022/06/14 17:03:09;;;;;;;3.78;1.80;;;26.10;55.40;;;;;;4965324;28;20671;-64
2022/06/14 17:05:56;;;;;;;3.38;1.67;;;25.80;55.10;;;;;;4973081;28;20094;-64
2022/06/14 17:08:33;;;;;;;4.32;1.80;;;26.30;56.60;;;;;;4962301;28;20035;-64
2022/06/14 17:11:05;;;;;;;4.38;1.58;;;27.30;57.10;;;;;;4972836;28;20039;-63
2022/06/14 17:13:42;;;;;;;4.70;1.80;;;28.10;55.60;;;;;;4972981;28;20043;-63
2022/06/14 17:16:18;;;;;;;6.28;1.52;;;27.80;53.80;;;;;;4964923;28;20407;-63
2022/06/14 17:18:50;;;;;;;4.43;1.70;;;27.10;53.90;;;;;;4972425;28;20035;-63